Time;durP1;ratioP1;P1;durP2;ratioP2;P2;SDS_P1;SDS_P2;PMS_P1;PMS_P2;Temp;Humidity;BMP_temperature;BMP_pressure;BME280_temperature;BME280_humidity;BME280_pressure;Samples;Min_cycle;Max_cycle;Signal;HPM_P1;HPM_P2
2021/10/23 00:00:33;;;;;;;47.03;23.35;;;6.30;94.80;;;;;;5073460;28;20090;-47
2021/10/23 00:02:59;;;;;;;44.33;23.42;;;6.40;94.90;;;;;;5073836;28;20115;-49
2021/10/23 00:05:25;;;;;;;50.67;26.00;;;6.30;94.90;;;;;;5073637;28;20465;-49
2021/10/23 00:07:51;;;;;;;54.60;24.30;;;6.40;94.90;;;;;;5074028;28;20031;-49
2021/10/23 00:10:17;;;;;;;47.10;23.23;;;6.50;94.80;;;;;;5074681;28;20294;-48
2021/10/23 00:12:42;;;;;;;57.35;26.05;;;6.40;94.90;;;;;;5073946;28;20025;-49
2021/10/23 00:15:08;;;;;;;53.80;26.23;;;6.40;94.80;;;;;;5074750;28;20142;-49
2021/10/23 00:17:34;;;;;;;57.58;26.38;;;6.40;94.80;;;;;;5056038;28;20457;-51
2021/10/23 00:20:01;;;;;;;52.20;25.27;;;6.50;94.90;;;;;;5073879;28;20028;-48
2021/10/23 00:22:28;;;;;;;47.78;24.00;;;6.40;94.90;;;;;;5074534;28;20029;-48
2021/10/23 00:24:54;;;;;;;50.17;25.92;;;6.40;94.90;;;;;;5073944;28;20067;-47
2021/10/23 00:27:20;;;;;;;40.78;24.10;;;6.40;94.90;;;;;;5074103;28;20471;-48
2021/10/23 00:29:46;;;;;;;48.95;24.55;;;6.40;95.00;;;;;;5055806;28;20028;-49
2021/10/23 00:32:11;;;;;;;46.38;23.70;;;6.50;95.10;;;;;;5073653;28;20477;-51
2021/10/23 00:34:38;;;;;;;50.95;21.98;;;6.40;95.00;;;;;;5073702;28;20040;-50
2021/10/23 00:37:04;;;;;;;42.92;21.80;;;6.30;95.10;;;;;;5073885;28;20039;-46
2021/10/23 00:39:29;;;;;;;45.92;21.95;;;6.30;95.10;;;;;;5073624;28;20453;-48
2021/10/23 00:41:55;;;;;;;37.88;20.33;;;6.30;95.20;;;;;;5073526;28;20040;-53
2021/10/23 00:44:35;;;;;;;44.10;21.60;;;6.30;95.20;;;;;;5073658;28;20037;-48
2021/10/23 00:47:02;;;;;;;44.08;20.90;;;6.30;95.30;;;;;;5073326;28;20021;-50
2021/10/23 00:49:28;;;;;;;34.15;18.95;;;6.30;95.30;;;;;;5073170;28;20128;-47
2021/10/23 00:51:53;;;;;;;36.08;19.95;;;6.30;95.40;;;;;;5073423;28;20103;-50
2021/10/23 00:54:20;;;;;;;37.88;20.50;;;6.30;95.40;;;;;;5073317;28;20029;-50
2021/10/23 00:56:45;;;;;;;38.42;19.42;;;6.30;95.50;;;;;;5073410;28;20032;-50
2021/10/23 00:59:11;;;;;;;47.22;19.00;;;6.30;95.50;;;;;;5073026;28;20131;-47
2021/10/23 01:01:37;;;;;;;34.20;17.48;;;6.30;95.60;;;;;;5055012;28;20380;-49
2021/10/23 01:04:03;;;;;;;39.15;19.63;;;6.40;95.60;;;;;;5073451;28;20029;-47
2021/10/23 01:06:28;;;;;;;34.83;18.05;;;6.30;95.60;;;;;;5072789;28;20120;-48
2021/10/23 01:08:54;;;;;;;36.55;17.85;;;6.30;95.70;;;;;;5073187;28;20020;-47
2021/10/23 01:11:19;;;;;;;35.70;19.83;;;6.40;95.70;;;;;;5072677;28;20017;-48
2021/10/23 01:13:45;;;;;;;38.50;20.08;;;6.40;95.70;;;;;;5072232;28;20040;-51
2021/10/23 01:16:13;;;;;;;43.08;20.67;;;6.40;95.60;;;;;;5072573;28;20056;-49
2021/10/23 01:18:44;;;;;;;42.80;20.48;;;6.30;95.60;;;;;;5072477;28;20031;-48
2021/10/23 01:21:09;;;;;;;40.60;24.10;;;6.40;95.60;;;;;;5072787;28;20032;-48
2021/10/23 01:23:35;;;;;;;52.10;23.00;;;6.40;95.60;;;;;;5072813;28;20500;-47
2021/10/23 01:26:02;;;;;;;39.70;21.25;;;6.40;95.60;;;;;;5054449;28;20105;-48
2021/10/23 01:28:27;;;;;;;51.65;23.65;;;6.40;95.60;;;;;;5072422;28;20025;-48
2021/10/23 01:30:57;;;;;;;39.45;20.13;;;6.40;95.60;;;;;;5072633;28;20039;-50
2021/10/23 01:33:23;;;;;;;44.42;19.67;;;6.50;95.50;;;;;;5072369;28;20028;-49
2021/10/23 01:35:49;;;;;;;37.97;21.30;;;6.50;95.60;;;;;;5072633;28;20036;-47
2021/10/23 01:38:14;;;;;;;47.55;21.77;;;6.50;95.60;;;;;;5072579;28;20040;-49
2021/10/23 01:40:40;;;;;;;47.83;24.58;;;6.60;95.50;;;;;;5072557;28;20384;-48
2021/10/23 01:43:06;;;;;;;50.83;25.35;;;6.60;95.50;;;;;;5072775;28;20074;-50
2021/10/23 01:45:32;;;;;;;50.17;23.58;;;6.60;95.40;;;;;;5072773;28;20075;-48
2021/10/23 01:47:59;;;;;;;45.13;22.27;;;6.40;95.40;;;;;;5072727;28;20473;-47
2021/10/23 01:50:27;;;;;;;44.25;22.92;;;6.40;95.50;;;;;;5072687;28;20025;-48
2021/10/23 01:52:54;;;;;;;47.95;23.92;;;6.50;95.50;;;;;;5072677;28;20021;-48
2021/10/23 01:55:20;;;;;;;50.40;24.73;;;6.50;95.50;;;;;;5072407;28;20077;-47
2021/10/23 01:57:47;;;;;;;69.13;26.98;;;6.50;95.50;;;;;;5072309;28;20024;-47
2021/10/23 02:00:15;;;;;;;50.58;23.42;;;6.50;95.40;;;;;;5072435;28;20092;-46
2021/10/23 02:02:41;;;;;;;61.30;25.33;;;6.40;95.40;;;;;;5072236;28;20045;-47
2021/10/23 02:05:07;;;;;;;60.65;26.55;;;6.40;95.50;;;;;;5072451;28;20133;-48
2021/10/23 02:07:33;;;;;;;50.70;24.55;;;6.40;95.60;;;;;;5073117;28;20178;-46
2021/10/23 02:09:59;;;;;;;50.75;25.30;;;6.30;95.70;;;;;;5054207;28;20487;-48
2021/10/23 02:12:25;;;;;;;49.70;23.02;;;6.40;95.70;;;;;;5072232;28;20024;-48
2021/10/23 02:14:52;;;;;;;60.08;26.90;;;6.50;95.80;;;;;;5072400;28;20477;-46
2021/10/23 02:17:17;;;;;;;58.30;27.77;;;6.60;95.80;;;;;;5072089;28;20085;-47
2021/10/23 02:19:43;;;;;;;57.40;25.90;;;6.60;95.70;;;;;;5072328;28;20036;-46
2021/10/23 02:22:08;;;;;;;66.05;25.95;;;6.50;95.60;;;;;;5072114;28;20099;-46
2021/10/23 02:24:34;;;;;;;57.45;25.98;;;6.50;95.60;;;;;;5075574;28;20108;-48
2021/10/23 02:27:00;;;;;;;59.92;27.48;;;6.70;95.70;;;;;;5075864;28;20426;-50
2021/10/23 02:29:25;;;;;;;58.70;27.73;;;6.70;95.60;;;;;;5076016;28;20020;-47
2021/10/23 02:31:51;;;;;;;63.25;26.88;;;6.80;95.60;;;;;;5076088;28;20047;-49
2021/10/23 02:34:18;;;;;;;84.65;32.35;;;6.70;95.50;;;;;;5075919;28;20439;-49
2021/10/23 02:36:44;;;;;;;65.25;27.60;;;6.80;95.50;;;;;;5075521;28;20028;-46
2021/10/23 02:39:10;;;;;;;74.55;30.60;;;6.70;95.40;;;;;;5075444;28;20074;-47
2021/10/23 02:41:35;;;;;;;74.88;31.65;;;6.70;95.50;;;;;;5057961;28;20063;-46
2021/10/23 02:44:01;;;;;;;94.63;37.55;;;6.80;95.50;;;;;;5075622;28;20040;-48
2021/10/23 02:46:27;;;;;;;76.40;35.30;;;6.80;95.50;;;;;;5075443;28;20117;-49
2021/10/23 02:48:52;;;;;;;91.20;35.15;;;6.80;95.40;;;;;;5075503;28;20381;-48
2021/10/23 02:51:18;;;;;;;102.97;37.95;;;6.80;95.40;;;;;;5075723;28;20028;-48
2021/10/23 02:53:44;;;;;;;125.53;42.80;;;7.00;95.40;;;;;;5075377;28;20024;-47
2021/10/23 02:56:09;;;;;;;143.32;46.92;;;6.90;95.30;;;;;;5075333;28;20099;-46
2021/10/23 02:58:35;;;;;;;129.07;45.35;;;6.90;95.30;;;;;;5075368;28;20127;-47
2021/10/23 03:01:02;;;;;;;164.20;48.88;;;6.90;95.20;;;;;;5075501;28;20138;-46
2021/10/23 03:03:28;;;;;;;156.98;46.88;;;6.90;95.30;;;;;;5075183;28;20031;-47
2021/10/23 03:05:53;;;;;;;156.77;46.38;;;6.90;95.20;;;;;;5075111;28;20048;-49
2021/10/23 03:08:19;;;;;;;129.90;44.15;;;7.00;95.20;;;;;;5075164;28;20025;-47
2021/10/23 03:10:44;;;;;;;142.43;44.08;;;6.90;95.20;;;;;;5075100;28;20082;-47
2021/10/23 03:13:10;;;;;;;111.22;42.05;;;6.90;95.20;;;;;;5075290;28;20032;-51
2021/10/23 03:15:36;;;;;;;106.55;39.33;;;6.90;95.20;;;;;;5075274;28;20028;-48
2021/10/23 03:18:02;;;;;;;116.55;38.40;;;6.80;95.30;;;;;;5074819;28;20024;-47
2021/10/23 03:20:28;;;;;;;112.65;39.63;;;6.80;95.30;;;;;;5074937;28;20021;-47
2021/10/23 03:22:54;;;;;;;124.45;40.80;;;6.90;95.40;;;;;;5074892;28;20443;-46
2021/10/23 03:25:19;;;;;;;100.05;39.40;;;6.90;95.40;;;;;;5075301;28;20402;-50
2021/10/23 03:27:45;;;;;;;97.38;36.65;;;6.80;95.10;;;;;;5074803;28;20020;-47
2021/10/23 03:30:11;;;;;;;86.00;34.33;;;6.80;95.20;;;;;;5074925;28;20491;-47
2021/10/23 03:32:36;;;;;;;85.45;34.22;;;6.70;95.20;;;;;;5074856;28;20031;-46
2021/10/23 03:35:04;;;;;;;80.78;33.40;;;6.70;95.40;;;;;;5073409;28;20028;-46
2021/10/23 03:37:30;;;;;;;72.30;28.58;;;6.70;95.40;;;;;;5074919;28;20029;-46
2021/10/23 03:39:57;;;;;;;73.22;30.20;;;6.60;95.50;;;;;;5074835;28;20051;-47
2021/10/23 03:42:23;;;;;;;55.42;25.20;;;6.50;95.50;;;;;;5074333;28;20028;-49
2021/10/23 03:44:49;;;;;;;69.53;27.83;;;6.40;95.60;;;;;;5074239;28;20031;-49
2021/10/23 03:47:16;;;;;;;57.67;28.10;;;6.50;95.70;;;;;;5074605;28;20048;-48
2021/10/23 03:49:43;;;;;;;79.60;26.50;;;6.50;95.80;;;;;;5056293;28;20052;-47
2021/10/23 03:52:09;;;;;;;64.65;26.73;;;6.50;95.80;;;;;;5074152;28;20032;-47
2021/10/23 03:54:35;;;;;;;60.80;26.55;;;6.40;95.80;;;;;;5074128;28;20059;-47
2021/10/23 03:57:01;;;;;;;62.22;27.80;;;6.30;95.90;;;;;;5074562;28;20067;-50
2021/10/23 03:59:27;;;;;;;57.35;25.77;;;6.30;95.90;;;;;;5074080;28;20529;-49
2021/10/23 04:01:52;;;;;;;79.75;27.45;;;6.30;96.00;;;;;;5074319;28;20388;-48
2021/10/23 04:04:18;;;;;;;81.80;30.90;;;6.30;96.00;;;;;;5073970;28;20027;-47
2021/10/23 04:06:44;;;;;;;89.55;32.03;;;6.40;96.10;;;;;;5073902;28;20040;-46
2021/10/23 04:09:09;;;;;;;74.43;30.65;;;6.40;96.10;;;;;;5074301;28;20025;-47
2021/10/23 04:11:35;;;;;;;129.68;34.53;;;6.40;96.00;;;;;;5074077;28;20350;-50
2021/10/23 04:14:01;;;;;;;92.32;34.15;;;6.40;95.90;;;;;;5074098;28;20388;-46
2021/10/23 04:16:27;;;;;;;95.28;32.90;;;6.30;95.80;;;;;;5074033;28;20028;-46
2021/10/23 04:18:53;;;;;;;106.97;34.33;;;6.40;95.80;;;;;;5055552;28;20032;-46
2021/10/23 04:21:18;;;;;;;141.65;34.60;;;6.30;95.70;;;;;;5073544;28;20033;-50
2021/10/23 04:23:44;;;;;;;143.95;34.53;;;6.30;95.60;;;;;;5073473;28;20029;-46
2021/10/23 04:26:10;;;;;;;116.32;34.67;;;6.40;95.60;;;;;;5073371;28;20020;-49
2021/10/23 04:28:36;;;;;;;145.73;37.55;;;6.30;95.30;;;;;;5073761;28;20024;-46
2021/10/23 04:31:02;;;;;;;118.05;35.25;;;6.30;95.40;;;;;;5073929;28;20084;-49
2021/10/23 04:33:27;;;;;;;213.20;42.17;;;6.30;95.40;;;;;;5074157;28;20021;-49
2021/10/23 04:35:53;;;;;;;208.90;45.22;;;6.40;95.40;;;;;;5073763;28;20051;-47
2021/10/23 04:38:18;;;;;;;176.07;44.60;;;6.50;95.40;;;;;;5073738;28;20058;-46
2021/10/23 04:40:44;;;;;;;167.73;48.25;;;6.50;95.40;;;;;;5055595;28;20032;-50
2021/10/23 04:43:10;;;;;;;206.48;47.28;;;6.50;95.30;;;;;;5073875;28;20153;-47
2021/10/23 04:45:36;;;;;;;222.45;50.95;;;6.60;95.30;;;;;;5072938;28;20028;-47
2021/10/23 04:48:02;;;;;;;176.30;48.83;;;6.70;95.30;;;;;;5073368;28;20020;-47
2021/10/23 04:50:28;;;;;;;329.10;60.90;;;6.60;95.30;;;;;;5073464;28;20025;-46
2021/10/23 04:52:54;;;;;;;325.52;63.90;;;6.70;95.40;;;;;;5073682;28;20514;-46
2021/10/23 04:55:20;;;;;;;182.57;49.03;;;6.70;95.30;;;;;;5073171;28;20055;-48
2021/10/23 04:57:46;;;;;;;340.45;60.55;;;6.60;95.30;;;;;;5073433;28;20075;-51
2021/10/23 05:00:11;;;;;;;419.45;67.68;;;6.60;95.50;;;;;;5073137;28;20056;-47
2021/10/23 05:02:37;;;;;;;403.15;63.13;;;6.70;95.50;;;;;;5055036;28;20021;-48
2021/10/23 05:05:03;;;;;;;441.88;68.28;;;6.70;95.50;;;;;;5073384;28;20032;-47
2021/10/23 05:07:29;;;;;;;387.98;65.80;;;6.70;95.50;;;;;;5073019;28;20119;-49
2021/10/23 05:09:54;;;;;;;256.90;56.53;;;6.70;95.50;;;;;;5072989;28;20063;-46
2021/10/23 05:12:20;;;;;;;236.43;52.33;;;6.60;95.50;;;;;;5072960;28;20488;-48
2021/10/23 05:14:46;;;;;;;363.42;60.42;;;6.60;95.60;;;;;;5072903;28;20067;-47
2021/10/23 05:17:11;;;;;;;338.33;61.05;;;6.70;95.70;;;;;;5073071;28;20085;-50
2021/10/23 05:19:37;;;;;;;296.25;55.03;;;6.60;95.70;;;;;;5073080;28;20177;-49
2021/10/23 05:22:03;;;;;;;162.93;44.85;;;6.60;95.70;;;;;;5072918;28;20032;-48
2021/10/23 05:24:28;;;;;;;234.32;48.40;;;6.50;95.90;;;;;;5072683;28;20062;-48
2021/10/23 05:26:54;;;;;;;420.67;63.92;;;6.60;96.00;;;;;;5072881;28;20112;-46
2021/10/23 05:29:20;;;;;;;191.25;42.92;;;6.40;96.00;;;;;;5072930;28;20077;-46
2021/10/23 05:31:46;;;;;;;313.50;53.95;;;6.60;96.10;;;;;;5072643;28;20104;-47
2021/10/23 05:34:12;;;;;;;429.98;61.53;;;6.60;96.20;;;;;;5072549;28;20127;-47
2021/10/23 05:36:38;;;;;;;193.05;45.60;;;6.70;96.10;;;;;;5073342;28;20067;-47
2021/10/23 05:39:04;;;;;;;181.50;46.00;;;6.70;96.20;;;;;;5055106;28;20037;-46
2021/10/23 05:41:30;;;;;;;242.00;52.00;;;6.60;96.20;;;;;;5073034;28;20029;-46
2021/10/23 05:43:55;;;;;;;206.82;47.65;;;6.60;96.30;;;;;;5072714;28;20029;-48
2021/10/23 05:46:21;;;;;;;198.02;45.22;;;6.60;96.30;;;;;;5072598;28;20099;-47
2021/10/23 05:48:47;;;;;;;154.90;37.33;;;6.60;96.30;;;;;;5072446;28;20047;-46
2021/10/23 05:51:13;;;;;;;264.65;48.78;;;6.50;96.30;;;;;;5054690;28;20124;-46
2021/10/23 05:53:39;;;;;;;286.98;50.65;;;6.50;96.40;;;;;;5072640;28;20044;-47
2021/10/23 05:56:05;;;;;;;247.57;51.35;;;6.60;96.40;;;;;;5054768;28;20025;-47
2021/10/23 05:58:30;;;;;;;209.80;51.33;;;6.50;96.40;;;;;;5074776;28;20021;-47
2021/10/23 06:01:05;;;;;;;172.63;46.10;;;6.60;96.40;;;;;;5076614;28;20093;-48
2021/10/23 06:03:34;;;;;;;176.90;50.25;;;6.50;96.30;;;;;;5058626;28;20025;-48
2021/10/23 06:06:02;;;;;;;280.27;57.72;;;6.50;96.30;;;;;;5076214;28;20036;-47
2021/10/23 06:08:29;;;;;;;182.93;51.15;;;6.50;96.30;;;;;;5058132;28;20041;-49
2021/10/23 06:10:54;;;;;;;321.05;63.83;;;6.50;96.30;;;;;;5076385;28;20446;-48
2021/10/23 06:13:22;;;;;;;319.08;62.35;;;6.50;96.30;;;;;;5058185;28;20035;-51
2021/10/23 06:15:48;;;;;;;272.27;57.22;;;6.60;96.30;;;;;;5076318;28;20027;-50
2021/10/23 06:18:14;;;;;;;444.80;74.00;;;6.60;96.20;;;;;;5076519;28;20357;-48
2021/10/23 06:20:40;;;;;;;236.48;58.00;;;6.70;96.20;;;;;;5076185;28;20198;-53
2021/10/23 06:23:05;;;;;;;183.32;52.05;;;6.70;96.00;;;;;;5075839;28;20036;-48
2021/10/23 06:25:31;;;;;;;298.35;56.45;;;6.70;96.20;;;;;;5076331;28;20043;-47
2021/10/23 06:27:57;;;;;;;148.75;47.38;;;6.60;96.20;;;;;;5075608;28;20441;-49
2021/10/23 06:30:25;;;;;;;138.68;44.00;;;6.60;96.30;;;;;;5076037;28;20433;-48
2021/10/23 06:32:52;;;;;;;241.02;53.45;;;6.50;96.20;;;;;;5075562;28;20020;-51
2021/10/23 06:35:19;;;;;;;238.77;51.33;;;6.70;96.20;;;;;;5076557;28;20077;-47
2021/10/23 06:37:45;;;;;;;160.15;48.33;;;6.60;96.20;;;;;;5075819;28;20100;-46
2021/10/23 06:40:12;;;;;;;168.55;47.20;;;6.70;96.30;;;;;;5075711;28;20021;-47
2021/10/23 06:42:42;;;;;;;355.63;62.05;;;6.60;96.30;;;;;;5075705;28;20028;-46
2021/10/23 06:45:10;;;;;;;347.33;60.75;;;6.60;96.20;;;;;;5075667;28;20116;-47
2021/10/23 06:47:36;;;;;;;258.52;54.92;;;6.80;96.30;;;;;;5075642;28;20029;-46
2021/10/23 06:50:03;;;;;;;266.05;53.25;;;6.80;96.30;;;;;;5075787;28;20028;-47
2021/10/23 06:52:28;;;;;;;332.20;64.38;;;6.80;96.20;;;;;;5075591;28;20028;-48
2021/10/23 06:54:54;;;;;;;227.77;55.25;;;6.80;96.20;;;;;;5075481;28;20085;-49
2021/10/23 06:57:20;;;;;;;241.32;60.67;;;7.00;96.20;;;;;;5057744;28;20027;-46
2021/10/23 06:59:45;;;;;;;281.63;60.90;;;7.00;96.10;;;;;;5075384;28;20024;-48
2021/10/23 07:02:11;;;;;;;171.13;53.35;;;7.10;96.10;;;;;;5075442;28;20075;-48
2021/10/23 07:04:38;;;;;;;213.65;56.33;;;7.10;95.90;;;;;;5057246;28;20048;-51
2021/10/23 07:07:05;;;;;;;189.10;50.67;;;7.10;95.90;;;;;;5056655;28;20078;-49
2021/10/23 07:09:30;;;;;;;308.80;61.83;;;7.20;95.90;;;;;;5074921;28;20021;-49
2021/10/23 07:11:56;;;;;;;183.52;52.30;;;7.30;95.80;;;;;;5075224;28;20145;-47
2021/10/23 07:14:21;;;;;;;218.05;57.28;;;7.20;95.80;;;;;;5074995;28;20028;-47
2021/10/23 07:16:47;;;;;;;159.90;47.80;;;7.30;95.70;;;;;;5075086;28;20028;-47
2021/10/23 07:19:13;;;;;;;218.13;63.17;;;7.30;95.60;;;;;;5075237;28;20032;-48
2021/10/23 07:21:39;;;;;;;127.85;51.45;;;7.30;95.60;;;;;;5074760;28;20342;-46
2021/10/23 07:24:05;;;;;;;153.68;48.60;;;7.30;95.50;;;;;;5074670;28;20067;-47
2021/10/23 07:26:30;;;;;;;176.75;51.40;;;7.30;95.50;;;;;;5074584;28;20078;-47
2021/10/23 07:28:56;;;;;;;160.07;50.42;;;7.40;95.50;;;;;;5056842;28;20017;-50
2021/10/23 07:31:22;;;;;;;154.95;49.53;;;7.40;95.20;;;;;;5074854;28;20028;-47
2021/10/23 07:33:48;;;;;;;168.48;50.55;;;7.60;95.50;;;;;;5074716;28;20031;-48
2021/10/23 07:36:17;;;;;;;159.50;51.10;;;7.70;95.40;;;;;;5074567;28;20388;-47
2021/10/23 07:38:43;;;;;;;153.10;53.45;;;7.60;95.00;;;;;;5058414;28;20081;-47
2021/10/23 07:41:08;;;;;;;155.57;53.90;;;7.60;95.00;;;;;;5074738;28;20035;-47
2021/10/23 07:43:34;;;;;;;150.52;54.92;;;7.70;95.10;;;;;;5056332;28;20032;-49
2021/10/23 07:46:00;;;;;;;146.15;50.53;;;7.90;95.00;;;;;;5075136;28;20166;-47
2021/10/23 07:48:26;;;;;;;146.15;53.00;;;7.90;94.50;;;;;;5074416;28;20115;-48
2021/10/23 07:50:51;;;;;;;159.90;55.55;;;8.00;94.10;;;;;;5056670;28;20053;-47
2021/10/23 07:53:18;;;;;;;130.23;52.03;;;8.00;93.90;;;;;;5074510;28;20029;-46
2021/10/23 07:55:44;;;;;;;130.02;49.58;;;7.90;93.90;;;;;;5074601;28;20513;-50
2021/10/23 07:58:10;;;;;;;132.35;53.10;;;7.90;93.90;;;;;;5074251;28;20104;-47
2021/10/23 08:00:36;;;;;;;124.15;49.58;;;8.00;94.10;;;;;;5074216;28;20021;-47
2021/10/23 08:03:02;;;;;;;136.13;49.58;;;7.90;93.90;;;;;;5074352;28;20028;-46
2021/10/23 08:05:36;;;;;;;128.95;49.30;;;7.80;93.80;;;;;;5073866;28;20492;-47
2021/10/23 08:08:06;;;;;;;128.00;51.63;;;7.90;94.20;;;;;;5074949;28;20108;-48
2021/10/23 08:10:33;;;;;;;134.18;48.90;;;8.00;94.10;;;;;;5074462;28;20020;-45
2021/10/23 08:13:00;;;;;;;123.60;49.58;;;8.30;94.00;;;;;;5073648;28;20020;-47
2021/10/23 08:15:27;;;;;;;133.38;48.58;;;8.50;93.60;;;;;;5073644;28;20028;-46
2021/10/23 08:17:57;;;;;;;104.78;44.25;;;8.60;93.10;;;;;;5073601;28;20099;-47
2021/10/23 08:20:25;;;;;;;100.18;43.65;;;8.70;92.60;;;;;;5073239;28;20098;-49
2021/10/23 08:22:51;;;;;;;93.53;42.25;;;9.00;92.40;;;;;;5055617;28;20024;-48
2021/10/23 08:25:16;;;;;;;99.90;42.00;;;9.30;90.80;;;;;;5055663;28;20504;-46
2021/10/23 08:27:43;;;;;;;85.20;40.95;;;9.10;90.10;;;;;;5073888;28;20024;-47
2021/10/23 08:30:12;;;;;;;93.35;44.75;;;9.00;90.30;;;;;;5073546;28;20031;-47
2021/10/23 08:32:41;;;;;;;100.55;42.35;;;9.20;89.80;;;;;;5073526;28;20481;-50
2021/10/23 08:35:09;;;;;;;103.60;42.90;;;8.80;89.80;;;;;;5073353;28;20024;-47
2021/10/23 08:37:35;;;;;;;112.72;48.03;;;8.70;91.10;;;;;;5073983;28;20024;-49
2021/10/23 08:40:00;;;;;;;76.80;35.40;;;8.80;90.90;;;;;;5073989;28;20024;-48
2021/10/23 08:42:27;;;;;;;71.45;34.92;;;9.20;89.40;;;;;;5055612;28;20024;-52
2021/10/23 08:44:54;;;;;;;80.07;34.03;;;9.80;88.20;;;;;;5055295;28;20025;-46
2021/10/23 08:47:21;;;;;;;65.53;32.42;;;10.90;84.80;;;;;;5073624;28;20020;-46
2021/10/23 08:49:47;;;;;;;60.10;28.65;;;11.40;81.70;;;;;;5073790;28;20053;-47
2021/10/23 08:52:13;;;;;;;52.67;26.15;;;10.60;83.40;;;;;;5073072;28;20035;-46
2021/10/23 08:54:41;;;;;;;55.78;28.02;;;10.70;85.30;;;;;;5073002;28;20032;-46
2021/10/23 08:57:07;;;;;;;47.78;26.45;;;11.80;81.30;;;;;;5072971;28;20040;-47
2021/10/23 08:59:33;;;;;;;49.13;25.60;;;11.40;80.00;;;;;;5055233;28;20481;-47
2021/10/23 09:02:00;;;;;;;57.70;26.55;;;11.70;80.00;;;;;;5072961;28;20028;-46
2021/10/23 09:04:27;;;;;;;60.85;25.85;;;11.80;79.60;;;;;;5073098;28;20089;-48
2021/10/23 09:07:04;;;;;;;50.30;23.55;;;11.90;78.80;;;;;;5072872;28;20045;-49
2021/10/23 09:09:29;;;;;;;52.55;26.50;;;12.00;78.80;;;;;;5072980;28;20017;-46
2021/10/23 09:11:55;;;;;;;57.67;24.60;;;12.30;76.40;;;;;;5072997;28;20525;-49
2021/10/23 09:14:32;;;;;;;41.88;21.83;;;12.60;75.30;;;;;;5055656;28;20037;-49
2021/10/23 09:17:09;;;;;;;44.13;22.58;;;13.00;74.20;;;;;;5072825;28;20040;-49
2021/10/23 09:19:47;;;;;;;46.05;22.65;;;12.90;72.90;;;;;;5072522;28;20035;-50
2021/10/23 09:22:38;;;;;;;47.45;20.02;;;13.30;73.50;;;;;;5073216;28;20054;-48
2021/10/23 09:25:27;;;;;;;41.20;19.95;;;12.50;72.90;;;;;;5072800;28;20363;-48
2021/10/23 09:28:12;;;;;;;40.58;19.88;;;13.40;71.80;;;;;;5073267;28;20047;-48
2021/10/23 09:30:48;;;;;;;44.08;20.20;;;13.50;70.80;;;;;;5054766;28;20028;-48
2021/10/23 09:33:20;;;;;;;44.35;19.35;;;14.30;68.10;;;;;;5072857;28;20074;-48
2021/10/23 09:35:52;;;;;;;46.97;21.00;;;13.40;71.10;;;;;;5054237;28;20055;-48
2021/10/23 09:38:19;;;;;;;44.30;19.50;;;12.30;74.40;;;;;;5072718;28;20024;-47
2021/10/23 09:40:47;;;;;;;42.53;21.33;;;11.90;76.60;;;;;;5072673;28;20103;-47
2021/10/23 09:43:15;;;;;;;50.95;21.00;;;12.30;75.80;;;;;;5072258;28;20017;-47
2021/10/23 09:45:56;;;;;;;40.42;18.88;;;13.10;72.90;;;;;;5072205;28;20032;-48
2021/10/23 09:48:42;;;;;;;40.75;20.15;;;13.20;73.00;;;;;;5072182;28;20069;-47
2021/10/23 09:51:11;;;;;;;49.67;21.60;;;13.80;69.50;;;;;;5072084;28;20025;-47
2021/10/23 09:53:38;;;;;;;43.83;20.25;;;12.70;74.10;;;;;;5072463;28;20044;-50
2021/10/23 09:56:09;;;;;;;43.53;21.50;;;13.60;71.90;;;;;;5054096;28;20029;-49
2021/10/23 09:58:35;;;;;;;42.97;18.20;;;12.80;73.90;;;;;;5072200;28;20023;-49
2021/10/23 10:01:01;;;;;;;47.60;18.48;;;12.30;73.80;;;;;;5072926;28;20357;-49
2021/10/23 10:03:29;;;;;;;49.97;19.50;;;12.60;73.30;;;;;;5071757;28;20131;-49
2021/10/23 10:05:56;;;;;;;43.75;17.83;;;13.10;72.10;;;;;;5053871;28;20071;-49
2021/10/23 10:08:23;;;;;;;43.65;20.10;;;12.30;73.60;;;;;;5054655;28;20115;-52
2021/10/23 10:10:49;;;;;;;45.95;21.35;;;12.00;76.00;;;;;;5072666;28;20016;-50
2021/10/23 10:13:23;;;;;;;42.70;21.17;;;12.30;75.00;;;;;;5072319;28;20021;-48
2021/10/23 10:15:54;;;;;;;51.08;21.60;;;12.20;74.90;;;;;;5072526;28;20017;-49
2021/10/23 10:18:22;;;;;;;38.42;19.63;;;12.10;76.20;;;;;;5071952;28;20017;-49
2021/10/23 10:20:51;;;;;;;42.13;20.20;;;12.00;76.50;;;;;;5071768;28;20575;-49
2021/10/23 10:23:29;;;;;;;46.20;19.98;;;12.50;75.30;;;;;;5072431;28;20074;-48
2021/10/23 10:26:25;;;;;;;48.70;20.52;;;12.80;74.30;;;;;;5072155;28;20028;-49
2021/10/23 10:29:14;;;;;;;40.53;18.70;;;12.90;73.70;;;;;;5072134;28;20024;-48
2021/10/23 10:31:53;;;;;;;39.95;20.02;;;12.80;74.00;;;;;;5053655;28;20028;-50
2021/10/23 10:42:52;;;;;;;54.15;24.90;;;11.70;76.70;;;;;;5071970;28;20040;-48
2021/10/23 10:45:34;;;;;;;43.03;19.33;;;11.60;78.80;;;;;;5074286;28;20021;-48
2021/10/23 10:48:44;;;;;;;48.20;19.08;;;11.60;77.90;;;;;;5057793;28;20069;-48
2021/10/23 10:51:11;;;;;;;45.03;18.60;;;11.40;78.90;;;;;;4977517;28;20435;-49
2021/10/23 10:53:41;;;;;;;44.53;19.02;;;11.50;77.40;;;;;;4994352;28;20045;-47
2021/10/23 10:56:10;;;;;;;37.53;16.67;;;11.60;76.60;;;;;;5038523;28;20068;-49
2021/10/23 10:58:53;;;;;;;39.78;16.33;;;11.80;76.20;;;;;;5075622;28;20429;-48
2021/10/23 11:01:29;;;;;;;43.42;19.95;;;12.30;75.00;;;;;;5075642;28;20530;-51
2021/10/23 11:03:58;;;;;;;38.70;17.15;;;13.00;73.40;;;;;;5075470;28;20028;-52
2021/10/23 11:07:01;;;;;;;43.03;19.17;;;13.80;71.00;;;;;;5057066;28;20048;-47
2021/10/23 11:09:30;;;;;;;43.65;20.05;;;14.10;69.00;;;;;;5074588;28;20056;-49
2021/10/23 11:11:59;;;;;;;46.05;20.30;;;14.20;67.60;;;;;;5074994;28;20021;-47
2021/10/23 11:14:27;;;;;;;48.15;20.70;;;13.40;69.80;;;;;;5057060;28;20048;-48
2021/10/23 11:16:53;;;;;;;37.75;19.60;;;12.80;72.20;;;;;;5075376;28;20136;-48
2021/10/23 11:19:22;;;;;;;42.08;18.83;;;12.20;72.90;;;;;;5075218;28;20154;-49
2021/10/23 11:21:53;;;;;;;39.85;17.63;;;11.90;74.10;;;;;;5074827;28;20119;-49
2021/10/23 11:24:19;;;;;;;33.70;15.70;;;12.20;73.70;;;;;;5074808;28;20362;-48
2021/10/23 11:26:51;;;;;;;33.97;15.13;;;11.90;73.60;;;;;;5075178;28;20028;-50
2021/10/23 11:29:25;;;;;;;36.00;15.35;;;12.30;71.40;;;;;;5074931;28;20040;-47
2021/10/23 11:31:52;;;;;;;31.77;13.52;;;11.90;72.90;;;;;;5074649;28;20025;-48
2021/10/23 11:34:35;;;;;;;36.25;14.95;;;11.80;72.80;;;;;;5074790;28;20059;-47
2021/10/23 11:37:04;;;;;;;33.85;14.05;;;11.90;74.00;;;;;;5074487;28;20046;-50
2021/10/23 11:39:40;;;;;;;39.83;17.58;;;12.20;71.80;;;;;;5074854;28;20025;-48
2021/10/23 11:42:29;;;;;;;33.28;14.00;;;12.40;72.50;;;;;;5057192;28;20071;-48
2021/10/23 11:44:56;;;;;;;33.88;15.15;;;12.80;69.90;;;;;;5056601;28;20035;-48
2021/10/23 11:47:30;;;;;;;31.88;13.73;;;12.80;70.70;;;;;;5074513;28;20422;-48
2021/10/23 11:50:06;;;;;;;25.42;10.57;;;12.60;68.50;;;;;;5056403;28;20020;-48
2021/10/23 11:52:33;;;;;;;32.95;9.95;;;12.80;67.70;;;;;;5074335;28;20024;-49
2021/10/23 11:55:00;;;;;;;22.15;9.40;;;13.00;65.90;;;;;;5073451;28;20036;-48
2021/10/23 11:57:44;;;;;;;22.75;10.05;;;13.30;65.00;;;;;;5073769;28;20480;-49
2021/10/23 12:00:15;;;;;;;31.20;9.88;;;13.20;65.10;;;;;;5074118;28;20108;-49
2021/10/23 12:02:50;;;;;;;25.17;10.38;;;13.30;65.50;;;;;;5074019;28;20028;-47
2021/10/23 12:05:25;;;;;;;23.45;8.32;;;13.50;65.40;;;;;;5073676;28;20549;-46
2021/10/23 12:08:19;;;;;;;23.05;6.72;;;13.60;62.10;;;;;;5073225;28;20384;-49
2021/10/23 12:11:13;;;;;;;14.10;4.43;;;13.80;60.80;;;;;;5073565;28;20468;-49
2021/10/23 12:13:55;;;;;;;8.70;3.72;;;13.90;59.30;;;;;;5074192;28;20507;-50
2021/10/23 12:16:45;;;;;;;13.82;4.57;;;13.70;60.00;;;;;;5074240;28;20020;-48
2021/10/23 12:19:17;;;;;;;;;;;13.70;58.60;;;;;;5074221;28;20064;-50
2021/10/23 12:22:05;;;;;;;14.73;4.20;;;13.80;58.90;;;;;;5073597;28;19915;-47
2021/10/23 12:24:35;;;;;;;10.90;3.92;;;13.90;58.80;;;;;;5055823;28;20389;-47
2021/10/23 12:27:13;;;;;;;8.48;3.30;;;13.70;57.60;;;;;;5073929;28;20025;-48
2021/10/23 12:29:44;;;;;;;10.25;3.60;;;13.20;58.30;;;;;;5073443;28;20012;-47
2021/10/23 12:32:43;;;;;;;8.60;3.78;;;13.20;59.80;;;;;;5039716;28;20032;-48
2021/10/23 12:35:23;;;;;;;9.32;4.95;;;13.30;60.00;;;;;;5077532;28;20149;-37
2021/10/23 12:37:52;;;;;;;9.07;3.78;;;13.40;60.40;;;;;;5073457;28;20437;-38
2021/10/23 12:40:27;;;;;;;9.55;3.70;;;13.40;59.00;;;;;;5073702;28;20475;-36
2021/10/23 12:43:04;;;;;;;10.02;3.83;;;13.40;59.10;;;;;;5073167;28;20081;-38
2021/10/23 12:45:34;;;;;;;11.02;4.18;;;13.30;60.20;;;;;;5073294;28;20020;-37